sensor_id;sensor_type;location;lat;lon;timestamp;temperature;humidity
79439;DHT22;68889;48.232;10.110;2024-03-08T00:02:06;0.50;99.90
79439;DHT22;68889;48.232;10.110;2024-03-08T00:07:42;0.30;99.90
79439;DHT22;68889;48.232;10.110;2024-03-08T00:10:22;0.30;99.90
79439;DHT22;68889;48.232;10.110;2024-03-08T00:12:59;0.30;99.90
79439;DHT22;68889;48.232;10.110;2024-03-08T00:19:03;0.30;99.90
79439;DHT22;68889;48.232;10.110;2024-03-08T00:21:30;0.40;99.90
79439;DHT22;68889;48.232;10.110;2024-03-08T00:24:07;0.40;99.90
79439;DHT22;68889;48.232;10.110;2024-03-08T00:26:57;0.30;99.90
79439;DHT22;68889;48.232;10.110;2024-03-08T00:29:27;0.30;99.90
79439;DHT22;68889;48.232;10.110;2024-03-08T00:32:06;0.40;99.90
79439;DHT22;68889;48.232;10.110;2024-03-08T00:34:39;0.30;99.90
79439;DHT22;68889;48.232;10.110;2024-03-08T00:37:36;0.30;99.90
79439;DHT22;68889;48.232;10.110;2024-03-08T00:40:17;0.30;99.90
79439;DHT22;68889;48.232;10.110;2024-03-08T00:43:19;0.30;99.90
79439;DHT22;68889;48.232;10.110;2024-03-08T00:46:25;0.30;99.90
79439;DHT22;68889;48.232;10.110;2024-03-08T00:52:27;0.30;99.90
79439;DHT22;68889;48.232;10.110;2024-03-08T00:55:03;0.20;99.90
79439;DHT22;68889;48.232;10.110;2024-03-08T00:57:55;0.20;99.90
79439;DHT22;68889;48.232;10.110;2024-03-08T01:00:26;0.20;99.90
79439;DHT22;68889;48.232;10.110;2024-03-08T01:02:57;0.20;99.90
79439;DHT22;68889;48.232;10.110;2024-03-08T01:05:28;0.30;99.90
79439;DHT22;68889;48.232;10.110;2024-03-08T01:08:10;0.20;99.90
79439;DHT22;68889;48.232;10.110;2024-03-08T01:11:00;0.30;99.90
79439;DHT22;68889;48.232;10.110;2024-03-08T01:13:36;0.30;99.90
79439;DHT22;68889;48.232;10.110;2024-03-08T01:16:22;0.30;99.90
79439;DHT22;68889;48.232;10.110;2024-03-08T01:18:48;0.30;99.90
79439;DHT22;68889;48.232;10.110;2024-03-08T01:21:18;0.30;99.90
79439;DHT22;68889;48.232;10.110;2024-03-08T01:24:11;0.30;99.90
79439;DHT22;68889;48.232;10.110;2024-03-08T01:26:45;0.20;99.90
79439;DHT22;68889;48.232;10.110;2024-03-08T01:29:30;0.20;99.90
79439;DHT22;68889;48.232;10.110;2024-03-08T01:35:49;0.10;99.90
79439;DHT22;68889;48.232;10.110;2024-03-08T01:38:32;0.10;99.90
79439;DHT22;68889;48.232;10.110;2024-03-08T01:41:20;0.00;99.90
79439;DHT22;68889;48.232;10.110;2024-03-08T01:44:06;0.00;99.90
79439;DHT22;68889;48.232;10.110;2024-03-08T01:46:56;-0.10;99.90
79439;DHT22;68889;48.232;10.110;2024-03-08T01:49:38;-0.20;99.90
79439;DHT22;68889;48.232;10.110;2024-03-08T01:52:29;-0.10;99.90
79439;DHT22;68889;48.232;10.110;2024-03-08T01:55:10;-0.10;99.90
79439;DHT22;68889;48.232;10.110;2024-03-08T01:57:47;-0.10;99.90
79439;DHT22;68889;48.232;10.110;2024-03-08T02:00:28;0.00;99.90
79439;DHT22;68889;48.232;10.110;2024-03-08T02:06:26;0.00;99.90
79439;DHT22;68889;48.232;10.110;2024-03-08T02:08:57;0.10;99.90
79439;DHT22;68889;48.232;10.110;2024-03-08T02:11:52;0.10;99.90
79439;DHT22;68889;48.232;10.110;2024-03-08T02:14:31;0.30;99.90
79439;DHT22;68889;48.232;10.110;2024-03-08T02:17:22;0.40;99.90
79439;DHT22;68889;48.232;10.110;2024-03-08T02:20:11;0.50;99.90
79439;DHT22;68889;48.232;10.110;2024-03-08T02:23:00;0.60;99.90
79439;DHT22;68889;48.232;10.110;2024-03-08T02:26:06;0.70;99.90
79439;DHT22;68889;48.232;10.110;2024-03-08T02:28:51;0.80;99.90
79439;DHT22;68889;48.232;10.110;2024-03-08T02:31:37;0.80;99.90
79439;DHT22;68889;48.232;10.110;2024-03-08T02:37:39;0.90;99.90
79439;DHT22;68889;48.232;10.110;2024-03-08T02:40:33;1.00;99.90
79439;DHT22;68889;48.232;10.110;2024-03-08T02:46:43;1.10;99.90
79439;DHT22;68889;48.232;10.110;2024-03-08T02:49:42;1.10;99.90
79439;DHT22;68889;48.232;10.110;2024-03-08T02:52:49;1.20;99.90
79439;DHT22;68889;48.232;10.110;2024-03-08T02:56:06;1.20;99.90
79439;DHT22;68889;48.232;10.110;2024-03-08T02:58:47;1.20;99.90
79439;DHT22;68889;48.232;10.110;2024-03-08T03:01:33;1.30;99.90
79439;DHT22;68889;48.232;10.110;2024-03-08T03:04:28;1.30;99.90
79439;DHT22;68889;48.232;10.110;2024-03-08T03:10:29;1.40;99.90
79439;DHT22;68889;48.232;10.110;2024-03-08T03:12:58;1.40;99.90
79439;DHT22;68889;48.232;10.110;2024-03-08T03:15:46;1.40;99.90
79439;DHT22;68889;48.232;10.110;2024-03-08T03:18:37;1.40;99.90
79439;DHT22;68889;48.232;10.110;2024-03-08T03:21:41;1.40;99.90
79439;DHT22;68889;48.232;10.110;2024-03-08T03:27:18;1.40;99.90
79439;DHT22;68889;48.232;10.110;2024-03-08T03:29:55;1.50;99.90
79439;DHT22;68889;48.232;10.110;2024-03-08T03:32:54;1.50;99.90
79439;DHT22;68889;48.232;10.110;2024-03-08T03:35:24;1.40;99.90
79439;DHT22;68889;48.232;10.110;2024-03-08T03:41:22;1.40;99.90
79439;DHT22;68889;48.232;10.110;2024-03-08T03:44:11;1.40;99.90
79439;DHT22;68889;48.232;10.110;2024-03-08T03:50:35;1.50;99.90
79439;DHT22;68889;48.232;10.110;2024-03-08T03:53:20;1.50;99.90
79439;DHT22;68889;48.232;10.110;2024-03-08T03:56:05;1.50;99.90
79439;DHT22;68889;48.232;10.110;2024-03-08T03:58:59;1.50;99.90
79439;DHT22;68889;48.232;10.110;2024-03-08T04:01:33;1.50;99.90
79439;DHT22;68889;48.232;10.110;2024-03-08T04:07:27;1.40;99.90
79439;DHT22;68889;48.232;10.110;2024-03-08T04:10:12;1.40;99.90
79439;DHT22;68889;48.232;10.110;2024-03-08T04:12:48;1.40;99.90
79439;DHT22;68889;48.232;10.110;2024-03-08T04:15:35;1.50;99.90
79439;DHT22;68889;48.232;10.110;2024-03-08T04:18:12;1.50;99.90
79439;DHT22;68889;48.232;10.110;2024-03-08T04:20:46;1.50;99.90
79439;DHT22;68889;48.232;10.110;2024-03-08T04:23:24;1.50;99.90
79439;DHT22;68889;48.232;10.110;2024-03-08T04:26:10;1.50;99.90
79439;DHT22;68889;48.232;10.110;2024-03-08T04:28:47;1.50;99.90
79439;DHT22;68889;48.232;10.110;2024-03-08T04:31:24;1.50;99.90
79439;DHT22;68889;48.232;10.110;2024-03-08T04:34:21;1.50;99.90
79439;DHT22;68889;48.232;10.110;2024-03-08T04:36:51;1.50;99.90
79439;DHT22;68889;48.232;10.110;2024-03-08T04:39:27;1.50;99.90
79439;DHT22;68889;48.232;10.110;2024-03-08T04:42:02;1.40;99.90
79439;DHT22;68889;48.232;10.110;2024-03-08T04:45:08;1.40;99.90
79439;DHT22;68889;48.232;10.110;2024-03-08T04:47:41;1.40;99.90
79439;DHT22;68889;48.232;10.110;2024-03-08T04:50:13;1.40;99.90
79439;DHT22;68889;48.232;10.110;2024-03-08T04:52:50;1.50;99.90
79439;DHT22;68889;48.232;10.110;2024-03-08T04:55:23;1.40;99.90
79439;DHT22;68889;48.232;10.110;2024-03-08T04:58:01;1.30;99.90
79439;DHT22;68889;48.232;10.110;2024-03-08T05:00:33;1.30;99.90
79439;DHT22;68889;48.232;10.110;2024-03-08T05:03:12;1.30;99.90
79439;DHT22;68889;48.232;10.110;2024-03-08T05:05:53;1.30;99.90
79439;DHT22;68889;48.232;10.110;2024-03-08T05:08:29;1.30;99.90
79439;DHT22;68889;48.232;10.110;2024-03-08T05:11:00;1.30;99.90
79439;DHT22;68889;48.232;10.110;2024-03-08T05:13:33;1.30;99.90
79439;DHT22;68889;48.232;10.110;2024-03-08T05:16:14;1.30;99.90
79439;DHT22;68889;48.232;10.110;2024-03-08T05:19:08;1.30;99.90
79439;DHT22;68889;48.232;10.110;2024-03-08T05:21:46;1.30;99.90
79439;DHT22;68889;48.232;10.110;2024-03-08T05:24:35;1.30;99.90
79439;DHT22;68889;48.232;10.110;2024-03-08T05:27:24;1.40;99.90
79439;DHT22;68889;48.232;10.110;2024-03-08T05:30:23;1.50;99.90
79439;DHT22;68889;48.232;10.110;2024-03-08T05:33:05;1.40;99.90
79439;DHT22;68889;48.232;10.110;2024-03-08T05:35:43;1.40;99.90
79439;DHT22;68889;48.232;10.110;2024-03-08T05:38:17;1.40;99.90
79439;DHT22;68889;48.232;10.110;2024-03-08T05:41:07;1.40;99.90
79439;DHT22;68889;48.232;10.110;2024-03-08T05:43:42;1.50;99.90
79439;DHT22;68889;48.232;10.110;2024-03-08T05:46:24;1.40;99.90
79439;DHT22;68889;48.232;10.110;2024-03-08T05:49:19;1.40;99.90
79439;DHT22;68889;48.232;10.110;2024-03-08T05:52:03;1.40;99.90
79439;DHT22;68889;48.232;10.110;2024-03-08T05:54:34;1.30;99.90
79439;DHT22;68889;48.232;10.110;2024-03-08T05:57:13;1.30;99.90
79439;DHT22;68889;48.232;10.110;2024-03-08T06:02:45;1.30;99.90
79439;DHT22;68889;48.232;10.110;2024-03-08T06:05:38;1.20;99.90
79439;DHT22;68889;48.232;10.110;2024-03-08T06:08:25;1.20;99.90
79439;DHT22;68889;48.232;10.110;2024-03-08T06:11:03;1.30;99.90
79439;DHT22;68889;48.232;10.110;2024-03-08T06:13:48;1.20;99.90
79439;DHT22;68889;48.232;10.110;2024-03-08T06:16:24;1.20;99.90
79439;DHT22;68889;48.232;10.110;2024-03-08T06:19:21;1.20;99.90
79439;DHT22;68889;48.232;10.110;2024-03-08T06:25:57;1.30;99.90
79439;DHT22;68889;48.232;10.110;2024-03-08T06:28:58;1.30;99.90
79439;DHT22;68889;48.232;10.110;2024-03-08T06:34:51;1.50;99.90
79439;DHT22;68889;48.232;10.110;2024-03-08T06:38:10;1.50;99.90
79439;DHT22;68889;48.232;10.110;2024-03-08T06:41:49;1.50;99.90
79439;DHT22;68889;48.232;10.110;2024-03-08T06:44:58;1.60;99.90
79439;DHT22;68889;48.232;10.110;2024-03-08T06:47:35;1.60;99.90
79439;DHT22;68889;48.232;10.110;2024-03-08T06:50:16;1.70;99.90
79439;DHT22;68889;48.232;10.110;2024-03-08T06:52:57;1.70;99.90
79439;DHT22;68889;48.232;10.110;2024-03-08T06:55:42;1.70;99.90
79439;DHT22;68889;48.232;10.110;2024-03-08T06:58:40;1.90;99.90
79439;DHT22;68889;48.232;10.110;2024-03-08T07:01:10;1.90;98.80
79439;DHT22;68889;48.232;10.110;2024-03-08T07:04:04;1.80;99.10
79439;DHT22;68889;48.232;10.110;2024-03-08T07:06:43;1.90;99.00
79439;DHT22;68889;48.232;10.110;2024-03-08T07:09:25;1.90;99.10
79439;DHT22;68889;48.232;10.110;2024-03-08T07:12:22;1.90;99.00
79439;DHT22;68889;48.232;10.110;2024-03-08T07:15:01;1.80;98.90
79439;DHT22;68889;48.232;10.110;2024-03-08T07:17:49;1.90;99.20
79439;DHT22;68889;48.232;10.110;2024-03-08T07:20:36;1.80;99.00
79439;DHT22;68889;48.232;10.110;2024-03-08T07:23:07;1.80;99.80
79439;DHT22;68889;48.232;10.110;2024-03-08T07:25:43;1.80;99.10
79439;DHT22;68889;48.232;10.110;2024-03-08T07:28:22;1.80;98.50
79439;DHT22;68889;48.232;10.110;2024-03-08T07:34:33;1.90;99.00
79439;DHT22;68889;48.232;10.110;2024-03-08T07:37:02;1.90;98.50
79439;DHT22;68889;48.232;10.110;2024-03-08T07:39:56;1.90;98.60
79439;DHT22;68889;48.232;10.110;2024-03-08T07:42:47;1.90;98.50
79439;DHT22;68889;48.232;10.110;2024-03-08T07:45:45;2.10;98.80
79439;DHT22;68889;48.232;10.110;2024-03-08T07:48:25;2.20;98.90
79439;DHT22;68889;48.232;10.110;2024-03-08T07:54:06;2.10;97.00
79439;DHT22;68889;48.232;10.110;2024-03-08T07:56:51;2.10;98.00
79439;DHT22;68889;48.232;10.110;2024-03-08T07:59:26;2.10;98.20
79439;DHT22;68889;48.232;10.110;2024-03-08T08:01:59;2.10;97.90
79439;DHT22;68889;48.232;10.110;2024-03-08T08:04:39;2.00;97.60
79439;DHT22;68889;48.232;10.110;2024-03-08T08:07:18;2.00;98.10
79439;DHT22;68889;48.232;10.110;2024-03-08T08:10:05;2.10;98.30
79439;DHT22;68889;48.232;10.110;2024-03-08T08:13:02;2.30;97.40
79439;DHT22;68889;48.232;10.110;2024-03-08T08:15:37;2.40;98.00
79439;DHT22;68889;48.232;10.110;2024-03-08T08:18:41;2.50;97.70
79439;DHT22;68889;48.232;10.110;2024-03-08T08:21:14;2.50;96.50
79439;DHT22;68889;48.232;10.110;2024-03-08T08:24:34;2.50;97.80
79439;DHT22;68889;48.232;10.110;2024-03-08T08:27:16;2.60;97.20
79439;DHT22;68889;48.232;10.110;2024-03-08T08:30:14;2.70;97.20
79439;DHT22;68889;48.232;10.110;2024-03-08T08:32:55;2.90;96.90
79439;DHT22;68889;48.232;10.110;2024-03-08T08:35:51;3.00;96.30
79439;DHT22;68889;48.232;10.110;2024-03-08T08:38:36;2.90;95.20
79439;DHT22;68889;48.232;10.110;2024-03-08T08:41:39;2.90;95.40
79439;DHT22;68889;48.232;10.110;2024-03-08T08:44:47;3.10;96.20
79439;DHT22;68889;48.232;10.110;2024-03-08T08:47:31;3.10;94.60
79439;DHT22;68889;48.232;10.110;2024-03-08T08:50:27;3.10;95.30
79439;DHT22;68889;48.232;10.110;2024-03-08T08:53:37;3.20;95.00
79439;DHT22;68889;48.232;10.110;2024-03-08T08:56:16;3.30;94.70
79439;DHT22;68889;48.232;10.110;2024-03-08T09:10:20;3.60;95.40
79439;DHT22;68889;48.232;10.110;2024-03-08T09:12:47;3.50;94.30
79439;DHT22;68889;48.232;10.110;2024-03-08T09:15:24;3.50;94.20
79439;DHT22;68889;48.232;10.110;2024-03-08T09:18:00;3.60;93.60
79439;DHT22;68889;48.232;10.110;2024-03-08T09:20:30;3.70;93.70
79439;DHT22;68889;48.232;10.110;2024-03-08T09:22:59;3.80;92.90
79439;DHT22;68889;48.232;10.110;2024-03-08T09:25:27;3.80;92.50
79439;DHT22;68889;48.232;10.110;2024-03-08T09:27:53;3.90;92.20
79439;DHT22;68889;48.232;10.110;2024-03-08T09:30:22;4.00;93.70
79439;DHT22;68889;48.232;10.110;2024-03-08T09:32:54;3.90;92.50
79439;DHT22;68889;48.232;10.110;2024-03-08T09:35:24;3.80;91.90
79439;DHT22;68889;48.232;10.110;2024-03-08T09:37:52;4.00;93.90
79439;DHT22;68889;48.232;10.110;2024-03-08T09:40:27;4.10;93.70
79439;DHT22;68889;48.232;10.110;2024-03-08T09:48:10;4.20;92.10
79439;DHT22;68889;48.232;10.110;2024-03-08T09:51:01;4.00;92.00
79439;DHT22;68889;48.232;10.110;2024-03-08T09:53:34;4.20;92.80
79439;DHT22;68889;48.232;10.110;2024-03-08T09:56:08;4.40;92.20
79439;DHT22;68889;48.232;10.110;2024-03-08T09:58:51;4.50;91.30
79439;DHT22;68889;48.232;10.110;2024-03-08T10:01:41;4.40;90.00
79439;DHT22;68889;48.232;10.110;2024-03-08T10:04:18;4.40;91.80
79439;DHT22;68889;48.232;10.110;2024-03-08T10:07:01;4.40;92.20
79439;DHT22;68889;48.232;10.110;2024-03-08T10:09:53;4.50;92.10
79439;DHT22;68889;48.232;10.110;2024-03-08T10:12:38;4.60;89.80
79439;DHT22;68889;48.232;10.110;2024-03-08T10:15:07;4.50;90.00
79439;DHT22;68889;48.232;10.110;2024-03-08T10:17:45;4.60;89.90
79439;DHT22;68889;48.232;10.110;2024-03-08T10:20:18;4.50;91.10
79439;DHT22;68889;48.232;10.110;2024-03-08T10:22:45;4.80;92.60
79439;DHT22;68889;48.232;10.110;2024-03-08T10:25:39;5.10;89.80
79439;DHT22;68889;48.232;10.110;2024-03-08T10:28:12;5.20;90.30
79439;DHT22;68889;48.232;10.110;2024-03-08T10:46:04;4.90;88.30
79439;DHT22;68889;48.232;10.110;2024-03-08T10:48:43;5.00;89.50
79439;DHT22;68889;48.232;10.110;2024-03-08T10:51:12;5.20;87.90
79439;DHT22;68889;48.232;10.110;2024-03-08T10:56:52;5.30;88.10
79439;DHT22;68889;48.232;10.110;2024-03-08T10:59:49;5.20;88.10
79439;DHT22;68889;48.232;10.110;2024-03-08T11:11:51;5.40;87.10
79439;DHT22;68889;48.232;10.110;2024-03-08T11:14:42;5.60;88.40
79439;DHT22;68889;48.232;10.110;2024-03-08T11:17:46;6.00;86.70
79439;DHT22;68889;48.232;10.110;2024-03-08T11:20:15;6.40;87.80
79439;DHT22;68889;48.232;10.110;2024-03-08T11:23:07;6.70;84.80
79439;DHT22;68889;48.232;10.110;2024-03-08T11:25:40;6.90;85.10
79439;DHT22;68889;48.232;10.110;2024-03-08T11:28:21;7.10;83.10
79439;DHT22;68889;48.232;10.110;2024-03-08T11:33:36;7.00;82.30
79439;DHT22;68889;48.232;10.110;2024-03-08T11:36:27;6.90;83.20
79439;DHT22;68889;48.232;10.110;2024-03-08T11:39:10;7.00;85.60
79439;DHT22;68889;48.232;10.110;2024-03-08T11:41:50;7.20;82.60
79439;DHT22;68889;48.232;10.110;2024-03-08T11:44:21;7.30;83.00
79439;DHT22;68889;48.232;10.110;2024-03-08T11:46:57;7.50;83.00
79439;DHT22;68889;48.232;10.110;2024-03-08T11:49:35;7.50;82.00
79439;DHT22;68889;48.232;10.110;2024-03-08T11:52:01;7.40;80.90
79439;DHT22;68889;48.232;10.110;2024-03-08T11:54:58;7.40;82.80
79439;DHT22;68889;48.232;10.110;2024-03-08T11:57:58;7.40;81.90
79439;DHT22;68889;48.232;10.110;2024-03-08T12:00:27;7.50;81.60
79439;DHT22;68889;48.232;10.110;2024-03-08T12:03:08;7.40;82.00
79439;DHT22;68889;48.232;10.110;2024-03-08T12:05:46;7.00;82.00
79439;DHT22;68889;48.232;10.110;2024-03-08T12:08:12;6.90;84.30
79439;DHT22;68889;48.232;10.110;2024-03-08T12:10:41;6.90;83.80
79439;DHT22;68889;48.232;10.110;2024-03-08T12:13:08;7.00;83.80
79439;DHT22;68889;48.232;10.110;2024-03-08T12:15:40;7.00;83.80
79439;DHT22;68889;48.232;10.110;2024-03-08T12:18:06;7.10;82.80
79439;DHT22;68889;48.232;10.110;2024-03-08T12:30:32;8.00;81.40
79439;DHT22;68889;48.232;10.110;2024-03-08T12:36:19;8.80;81.50
79439;DHT22;68889;48.232;10.110;2024-03-08T12:38:48;9.20;79.60
79439;DHT22;68889;48.232;10.110;2024-03-08T12:44:20;9.50;77.10
79439;DHT22;68889;48.232;10.110;2024-03-08T12:46:50;9.40;78.90
79439;DHT22;68889;48.232;10.110;2024-03-08T12:49:19;9.50;79.40
79439;DHT22;68889;48.232;10.110;2024-03-08T12:51:51;9.70;79.50
79439;DHT22;68889;48.232;10.110;2024-03-08T12:54:18;10.10;78.50
79439;DHT22;68889;48.232;10.110;2024-03-08T12:56:48;10.30;78.60
79439;DHT22;68889;48.232;10.110;2024-03-08T12:59:15;10.60;77.70
79439;DHT22;68889;48.232;10.110;2024-03-08T13:02:16;10.70;75.00
79439;DHT22;68889;48.232;10.110;2024-03-08T13:07:50;10.80;75.00
79439;DHT22;68889;48.232;10.110;2024-03-08T13:10:27;10.90;75.30
79439;DHT22;68889;48.232;10.110;2024-03-08T13:12:56;10.90;75.70
79439;DHT22;68889;48.232;10.110;2024-03-08T13:15:29;10.80;75.00
79439;DHT22;68889;48.232;10.110;2024-03-08T13:17:55;10.90;77.10
79439;DHT22;68889;48.232;10.110;2024-03-08T13:20:25;11.10;75.70
79439;DHT22;68889;48.232;10.110;2024-03-08T13:22:53;11.40;75.60
79439;DHT22;68889;48.232;10.110;2024-03-08T13:25:33;11.50;74.60
79439;DHT22;68889;48.232;10.110;2024-03-08T13:27:59;11.60;74.30
79439;DHT22;68889;48.232;10.110;2024-03-08T13:30:31;11.60;74.30
79439;DHT22;68889;48.232;10.110;2024-03-08T13:33:01;11.80;75.00
79439;DHT22;68889;48.232;10.110;2024-03-08T13:35:34;11.90;72.70
79439;DHT22;68889;48.232;10.110;2024-03-08T13:38:03;11.90;72.80
79439;DHT22;68889;48.232;10.110;2024-03-08T13:40:33;12.00;74.80
79439;DHT22;68889;48.232;10.110;2024-03-08T13:42:59;12.20;73.60
79439;DHT22;68889;48.232;10.110;2024-03-08T13:45:40;12.30;73.50
79439;DHT22;68889;48.232;10.110;2024-03-08T13:48:10;12.40;74.50
79439;DHT22;68889;48.232;10.110;2024-03-08T13:51:17;12.60;72.90
79439;DHT22;68889;48.232;10.110;2024-03-08T13:54:01;12.50;73.70
79439;DHT22;68889;48.232;10.110;2024-03-08T13:56:28;12.80;74.30
79439;DHT22;68889;48.232;10.110;2024-03-08T13:58:57;12.90;72.60
79439;DHT22;68889;48.232;10.110;2024-03-08T14:01:27;13.00;74.20
79439;DHT22;68889;48.232;10.110;2024-03-08T14:03:55;13.00;72.40
79439;DHT22;68889;48.232;10.110;2024-03-08T14:06:26;12.80;72.70
79439;DHT22;68889;48.232;10.110;2024-03-08T14:09:02;12.70;71.90
79439;DHT22;68889;48.232;10.110;2024-03-08T14:11:35;12.70;73.20
79439;DHT22;68889;48.232;10.110;2024-03-08T14:14:03;12.60;72.30
79439;DHT22;68889;48.232;10.110;2024-03-08T14:16:42;12.50;73.00
79439;DHT22;68889;48.232;10.110;2024-03-08T14:19:12;12.50;73.30
79439;DHT22;68889;48.232;10.110;2024-03-08T14:21:55;12.80;73.90
79439;DHT22;68889;48.232;10.110;2024-03-08T14:24:33;13.10;73.00
79439;DHT22;68889;48.232;10.110;2024-03-08T14:29:44;13.20;72.70
79439;DHT22;68889;48.232;10.110;2024-03-08T14:32:45;13.20;71.40
79439;DHT22;68889;48.232;10.110;2024-03-08T14:35:32;13.30;70.90
79439;DHT22;68889;48.232;10.110;2024-03-08T14:37:59;13.10;70.70
79439;DHT22;68889;48.232;10.110;2024-03-08T14:40:57;13.00;72.70
79439;DHT22;68889;48.232;10.110;2024-03-08T14:43:23;13.20;71.60
79439;DHT22;68889;48.232;10.110;2024-03-08T14:45:54;13.30;72.70
79439;DHT22;68889;48.232;10.110;2024-03-08T14:48:28;13.50;70.90
79439;DHT22;68889;48.232;10.110;2024-03-08T14:51:13;13.40;71.10
79439;DHT22;68889;48.232;10.110;2024-03-08T14:53:42;13.50;71.60
79439;DHT22;68889;48.232;10.110;2024-03-08T14:56:23;13.60;72.10
79439;DHT22;68889;48.232;10.110;2024-03-08T14:58:52;13.80;70.30
79439;DHT22;68889;48.232;10.110;2024-03-08T15:01:26;13.70;69.30
79439;DHT22;68889;48.232;10.110;2024-03-08T15:03:55;13.70;69.30
79439;DHT22;68889;48.232;10.110;2024-03-08T15:06:54;13.70;69.30
79439;DHT22;68889;48.232;10.110;2024-03-08T15:09:30;13.60;68.80
79439;DHT22;68889;48.232;10.110;2024-03-08T15:12:07;13.30;69.00
79439;DHT22;68889;48.232;10.110;2024-03-08T15:14:48;13.30;71.30
79439;DHT22;68889;48.232;10.110;2024-03-08T15:17:20;13.40;70.90
79439;DHT22;68889;48.232;10.110;2024-03-08T15:20:08;13.50;70.50
79439;DHT22;68889;48.232;10.110;2024-03-08T15:22:43;13.40;70.60
79439;DHT22;68889;48.232;10.110;2024-03-08T15:25:39;13.20;70.00
79439;DHT22;68889;48.232;10.110;2024-03-08T15:28:19;13.20;71.00
79439;DHT22;68889;48.232;10.110;2024-03-08T15:31:09;13.10;70.40
79439;DHT22;68889;48.232;10.110;2024-03-08T15:33:46;12.90;69.70
79439;DHT22;68889;48.232;10.110;2024-03-08T15:36:18;12.70;71.10
79439;DHT22;68889;48.232;10.110;2024-03-08T15:38:48;12.50;70.90
79439;DHT22;68889;48.232;10.110;2024-03-08T15:41:20;12.40;71.00
79439;DHT22;68889;48.232;10.110;2024-03-08T15:44:04;12.30;71.50
79439;DHT22;68889;48.232;10.110;2024-03-08T15:46:37;12.30;72.60
79439;DHT22;68889;48.232;10.110;2024-03-08T15:49:40;12.30;73.00
79439;DHT22;68889;48.232;10.110;2024-03-08T15:52:44;12.40;73.20
79439;DHT22;68889;48.232;10.110;2024-03-08T15:55:39;12.40;71.80
79439;DHT22;68889;48.232;10.110;2024-03-08T15:58:06;12.30;71.90
79439;DHT22;68889;48.232;10.110;2024-03-08T16:03:47;12.00;71.80
79439;DHT22;68889;48.232;10.110;2024-03-08T16:09:47;11.70;72.40
79439;DHT22;68889;48.232;10.110;2024-03-08T16:12:17;11.70;73.10
79439;DHT22;68889;48.232;10.110;2024-03-08T16:15:09;11.80;72.90
79439;DHT22;68889;48.232;10.110;2024-03-08T16:17:45;12.00;72.20
79439;DHT22;68889;48.232;10.110;2024-03-08T16:20:31;12.10;72.30
79439;DHT22;68889;48.232;10.110;2024-03-08T16:23:01;12.20;71.60
79439;DHT22;68889;48.232;10.110;2024-03-08T16:25:40;12.20;70.50
79439;DHT22;68889;48.232;10.110;2024-03-08T16:28:19;11.90;70.90
79439;DHT22;68889;48.232;10.110;2024-03-08T16:30:51;11.70;72.20
79439;DHT22;68889;48.232;10.110;2024-03-08T16:36:01;11.30;71.60
79439;DHT22;68889;48.232;10.110;2024-03-08T16:38:37;11.10;71.40
79439;DHT22;68889;48.232;10.110;2024-03-08T16:41:09;10.80;72.50
79439;DHT22;68889;48.232;10.110;2024-03-08T16:43:40;10.40;73.00
79439;DHT22;68889;48.232;10.110;2024-03-08T16:46:13;10.10;75.50
79439;DHT22;68889;48.232;10.110;2024-03-08T16:48:39;9.70;75.70
79439;DHT22;68889;48.232;10.110;2024-03-08T16:51:25;9.40;75.90
79439;DHT22;68889;48.232;10.110;2024-03-08T16:54:00;9.20;77.20
79439;DHT22;68889;48.232;10.110;2024-03-08T16:59:45;8.80;78.00
79439;DHT22;68889;48.232;10.110;2024-03-08T17:02:23;8.60;78.90
79439;DHT22;68889;48.232;10.110;2024-03-08T17:05:17;8.40;78.00
79439;DHT22;68889;48.232;10.110;2024-03-08T17:07:58;8.30;79.50
79439;DHT22;68889;48.232;10.110;2024-03-08T17:10:36;8.10;79.20
79439;DHT22;68889;48.232;10.110;2024-03-08T17:13:18;7.90;79.80
79439;DHT22;68889;48.232;10.110;2024-03-08T17:19:15;7.60;80.90
79439;DHT22;68889;48.232;10.110;2024-03-08T17:25:34;7.30;82.70
79439;DHT22;68889;48.232;10.110;2024-03-08T17:28:01;7.10;84.80
79439;DHT22;68889;48.232;10.110;2024-03-08T17:30:33;6.90;84.10
79439;DHT22;68889;48.232;10.110;2024-03-08T17:33:22;6.90;83.80
79439;DHT22;68889;48.232;10.110;2024-03-08T17:35:54;6.90;83.80
79439;DHT22;68889;48.232;10.110;2024-03-08T17:38:39;6.80;84.20
79439;DHT22;68889;48.232;10.110;2024-03-08T17:41:17;6.70;84.90
79439;DHT22;68889;48.232;10.110;2024-03-08T17:44:21;6.60;84.90
79439;DHT22;68889;48.232;10.110;2024-03-08T17:47:24;6.50;85.50
79439;DHT22;68889;48.232;10.110;2024-03-08T17:50:13;6.50;85.50
79439;DHT22;68889;48.232;10.110;2024-03-08T17:56:03;6.30;87.60
79439;DHT22;68889;48.232;10.110;2024-03-08T17:58:32;6.10;86.50
79439;DHT22;68889;48.232;10.110;2024-03-08T18:01:08;6.10;86.30
79439;DHT22;68889;48.232;10.110;2024-03-08T18:03:37;6.00;87.40
79439;DHT22;68889;48.232;10.110;2024-03-08T18:09:26;5.90;86.60
79439;DHT22;68889;48.232;10.110;2024-03-08T18:12:17;5.80;87.60
79439;DHT22;68889;48.232;10.110;2024-03-08T18:14:54;5.80;87.10
79439;DHT22;68889;48.232;10.110;2024-03-08T18:17:21;5.80;87.60
79439;DHT22;68889;48.232;10.110;2024-03-08T18:19:51;5.70;88.00
79439;DHT22;68889;48.232;10.110;2024-03-08T18:22:28;5.70;88.10
79439;DHT22;68889;48.232;10.110;2024-03-08T18:28:05;5.60;88.10
79439;DHT22;68889;48.232;10.110;2024-03-08T18:30:39;5.50;88.20
79439;DHT22;68889;48.232;10.110;2024-03-08T18:33:06;5.40;88.40
79439;DHT22;68889;48.232;10.110;2024-03-08T18:35:37;5.30;88.60
79439;DHT22;68889;48.232;10.110;2024-03-08T18:38:07;5.30;88.70
79439;DHT22;68889;48.232;10.110;2024-03-08T18:40:38;5.20;89.00
79439;DHT22;68889;48.232;10.110;2024-03-08T18:43:09;5.20;88.70
79439;DHT22;68889;48.232;10.110;2024-03-08T18:45:51;5.20;88.70
79439;DHT22;68889;48.232;10.110;2024-03-08T18:51:41;5.10;89.40
79439;DHT22;68889;48.232;10.110;2024-03-08T18:54:10;5.00;90.10
79439;DHT22;68889;48.232;10.110;2024-03-08T18:56:42;4.90;90.00
79439;DHT22;68889;48.232;10.110;2024-03-08T19:02:30;4.70;90.80
79439;DHT22;68889;48.232;10.110;2024-03-08T19:05:04;4.70;90.90
79439;DHT22;68889;48.232;10.110;2024-03-08T19:07:48;4.70;90.70
79439;DHT22;68889;48.232;10.110;2024-03-08T19:10:26;4.60;90.80
79439;DHT22;68889;48.232;10.110;2024-03-08T19:13:04;4.60;91.00
79439;DHT22;68889;48.232;10.110;2024-03-08T19:15:46;4.60;90.80
79439;DHT22;68889;48.232;10.110;2024-03-08T19:18:16;4.60;90.70
79439;DHT22;68889;48.232;10.110;2024-03-08T19:20:49;4.50;91.20
79439;DHT22;68889;48.232;10.110;2024-03-08T19:23:17;4.50;91.10
79439;DHT22;68889;48.232;10.110;2024-03-08T19:25:43;4.40;91.80
79439;DHT22;68889;48.232;10.110;2024-03-08T19:28:11;4.30;91.80
79439;DHT22;68889;48.232;10.110;2024-03-08T19:31:09;4.20;92.60